Time;durP1;ratioP1;P1;durP2;ratioP2;P2;SDS_P1;SDS_P2;PMS_P1;PMS_P2;Temp;Humidity;BMP_temperature;BMP_pressure;BME280_temperature;BME280_humidity;BME280_pressure;Samples;Min_cycle;Max_cycle;Signal;HPM_P1;HPM_P2
2022/01/25 07:14:58;;;;;;;16.88;15.48;;;;;;;-6.83;54.92;96106.50;5138134;27;20231;-63
2022/01/25 07:17:25;;;;;;;17.05;15.75;;;;;;;-6.75;54.80;96102.75;5138383;27;20234;-63
2022/01/25 07:19:52;;;;;;;17.17;15.70;;;;;;;-6.65;55.14;96099.56;5139119;27;20210;-63
2022/01/25 07:22:19;;;;;;;16.70;15.30;;;;;;;-6.57;54.73;96102.00;5139489;27;20202;-63
2022/01/25 07:24:46;;;;;;;15.68;14.48;;;;;;;-6.59;53.97;96102.19;5121342;27;20198;-65
2022/01/25 07:27:13;;;;;;;15.98;14.70;;;;;;;-6.59;54.96;96098.69;5121269;27;20218;-65
2022/01/25 07:29:39;;;;;;;16.55;15.25;;;;;;;-6.55;54.80;96091.84;5138357;27;20426;-63
2022/01/25 07:32:08;;;;;;;16.17;14.88;;;;;;;-6.49;54.35;96093.66;5137843;27;20426;-64
2022/01/25 07:34:35;;;;;;;15.88;14.57;;;;;;;-6.40;54.85;96092.31;5121268;27;20201;-64
2022/01/25 07:37:02;;;;;;;15.30;14.05;;;;;;;-6.34;54.70;96093.28;5137972;27;20209;-64
2022/01/25 07:39:28;;;;;;;15.75;14.45;;;;;;;-6.14;53.77;96095.75;5139073;27;20195;-64
2022/01/25 07:41:58;;;;;;;16.15;14.85;;;;;;;-6.03;53.78;96096.88;5120077;27;20218;-64
2022/01/25 07:44:28;;;;;;;15.57;14.27;;;;;;;-5.93;53.91;96098.00;5138279;27;20248;-64
2022/01/25 07:46:57;;;;;;;14.82;13.68;;;;;;;-5.82;53.14;96097.22;5138471;27;20573;-64
2022/01/25 07:49:25;;;;;;;15.60;14.40;;;;;;;-5.68;52.69;96091.69;5120134;27;20281;-64
2022/01/25 07:51:52;;;;;;;16.58;15.20;;;;;;;-5.64;52.94;96093.69;5120058;27;20199;-65
2022/01/25 07:54:19;;;;;;;17.45;16.05;;;;;;;-5.53;52.66;96092.13;5121140;27;20543;-64
2022/01/25 07:56:46;;;;;;;16.60;15.27;;;;;;;-5.47;52.11;96085.84;5138322;27;20214;-64
2022/01/25 07:59:13;;;;;;;15.32;14.02;;;;;;;-5.50;52.76;96090.84;5138499;27;20534;-64
2022/01/25 08:01:40;;;;;;;15.65;14.35;;;;;;;-5.53;52.65;96100.19;5137895;27;20215;-64
2022/01/25 08:04:08;;;;;;;16.63;15.23;;;;;;;-5.49;52.66;96095.16;5137732;27;20198;-64
2022/01/25 08:06:37;;;;;;;17.30;15.90;;;;;;;-5.44;53.34;96098.00;5120018;27;20217;-64
2022/01/25 08:09:04;;;;;;;17.95;16.45;;;;;;;-5.33;52.84;96099.94;5138151;27;20198;-65
2022/01/25 08:11:31;;;;;;;17.85;16.45;;;;;;;-5.32;52.86;96091.63;5119798;27;20190;-65
2022/01/25 08:14:11;;;;;;;18.65;17.15;;;;;;;-5.27;52.84;96092.81;5137814;27;20191;-65
2022/01/25 08:16:37;;;;;;;17.65;16.10;;;;;;;-5.14;52.98;96089.94;5137979;27;20241;-65
2022/01/25 08:19:04;;;;;;;19.20;17.60;;;;;;;-4.99;52.40;96090.31;5138253;27;20201;-64
2022/01/25 08:21:31;;;;;;;19.25;17.75;;;;;;;-4.85;52.09;96093.63;5137806;27;20203;-64
2022/01/25 08:23:59;;;;;;;20.33;18.70;;;;;;;-4.80;51.74;96085.69;5138045;27;20195;-64
2022/01/25 08:26:26;;;;;;;18.77;17.17;;;;;;;-4.77;51.60;96087.09;5137912;27;20518;-64
2022/01/25 08:28:53;;;;;;;18.67;17.17;;;;;;;-4.65;51.94;96086.06;5119407;27;20305;-63
2022/01/25 08:31:20;;;;;;;18.35;16.85;;;;;;;-4.46;50.97;96094.06;5137703;27;20187;-64
2022/01/25 08:33:47;;;;;;;18.25;16.77;;;;;;;-4.35;50.69;96095.94;5137198;27;20211;-64
2022/01/25 08:36:14;;;;;;;18.00;16.50;;;;;;;-4.21;50.29;96083.00;5137631;27;20205;-64
2022/01/25 08:38:40;;;;;;;18.27;16.70;;;;;;;-4.07;50.48;96087.09;5119785;27;20199;-64
2022/01/25 08:41:09;;;;;;;18.48;16.98;;;;;;;-4.01;50.76;96083.47;5137447;27;20646;-64
2022/01/25 08:43:36;;;;;;;18.10;16.50;;;;;;;-3.83;50.62;96079.81;5136931;27;20187;-64
2022/01/25 08:46:03;;;;;;;17.75;16.35;;;;;;;-3.77;49.56;96076.19;5119137;27;20534;-64
2022/01/25 08:48:30;;;;;;;18.10;16.70;;;;;;;-3.71;49.16;96074.38;5137282;27;20369;-64
2022/01/25 08:50:58;;;;;;;17.27;15.88;;;;;;;-3.70;49.90;96070.66;5119402;27;20203;-64
2022/01/25 08:53:25;;;;;;;16.70;15.40;;;;;;;-3.65;49.04;96062.66;5137112;27;20255;-65
2022/01/25 08:55:52;;;;;;;17.38;15.98;;;;;;;-3.57;49.14;96059.59;5137174;27;20187;-64
2022/01/25 08:58:20;;;;;;;16.58;15.18;;;;;;;-3.45;49.01;96060.38;5137283;27;20198;-65
2022/01/25 09:00:47;;;;;;;17.73;16.23;;;;;;;-3.30;48.52;96061.72;5118959;27;20219;-65
2022/01/25 09:03:14;;;;;;;16.63;15.30;;;;;;;-3.10;48.93;96062.09;5136654;27;20199;-65
2022/01/25 09:05:41;;;;;;;17.60;16.10;;;;;;;-2.94;48.42;96058.59;5118870;27;20225;-65
2022/01/25 09:08:09;;;;;;;17.45;15.95;;;;;;;-2.85;46.62;96045.50;5118901;27;20298;-64
2022/01/25 09:10:36;;;;;;;16.77;15.38;;;;;;;-2.74;47.54;96060.81;5118861;27;20191;-64
2022/01/25 09:13:03;;;;;;;17.65;16.15;;;;;;;-2.72;47.40;96036.28;5137129;27;20199;-65
2022/01/25 09:15:32;;;;;;;16.45;15.02;;;;;;;-2.69;46.86;96043.88;5118752;27;20230;-65
2022/01/25 09:17:59;;;;;;;17.33;15.93;;;;;;;-2.60;46.22;96036.19;5135959;27;20887;-65
2022/01/25 09:20:26;;;;;;;16.00;14.70;;;;;;;-2.55;47.37;96033.56;5136694;27;20226;-65
2022/01/25 09:22:53;;;;;;;17.20;15.80;;;;;;;-2.42;46.57;96034.06;5119063;27;20192;-65
2022/01/25 09:25:20;;;;;;;16.65;15.25;;;;;;;-2.25;46.20;96035.91;5136869;27;20199;-64
2022/01/25 09:27:47;;;;;;;17.98;16.42;;;;;;;-2.04;45.99;96035.13;5136544;27;20626;-64
2022/01/25 09:30:14;;;;;;;18.90;17.42;;;;;;;-1.91;45.70;96027.72;5119238;27;20211;-64
2022/01/25 09:32:42;;;;;;;16.83;15.43;;;;;;;-2.07;44.86;96032.09;5118945;27;20202;-64
2022/01/25 09:35:09;;;;;;;17.02;15.63;;;;;;;-1.99;45.33;96026.28;5118851;27;20607;-64
2022/01/25 09:37:36;;;;;;;16.75;15.30;;;;;;;-1.86;45.22;96027.78;5118570;27;20203;-65
2022/01/25 09:40:04;;;;;;;16.08;14.75;;;;;;;-1.71;44.68;96022.56;5118555;27;20202;-64
2022/01/25 09:42:31;;;;;;;17.42;16.02;;;;;;;-1.48;45.47;96025.00;5136670;27;20211;-64
2022/01/25 09:44:59;;;;;;;16.27;14.85;;;;;;;-1.34;44.91;96020.03;5118493;27;20210;-64
2022/01/25 09:47:26;;;;;;;16.00;14.65;;;;;;;-1.16;44.73;96018.84;5136127;27;20202;-64
2022/01/25 09:49:55;;;;;;;17.33;15.82;;;;;;;-1.27;44.41;96009.81;5136374;27;20198;-64
2022/01/25 09:52:22;;;;;;;16.75;15.35;;;;;;;-1.05;43.54;96003.53;5136214;27;20499;-64
2022/01/25 09:54:54;;;;;;;16.13;14.90;;;;;;;-0.98;42.78;96004.94;5118301;27;20191;-63
2022/01/25 09:57:21;;;;;;;15.25;14.15;;;;;;;-0.76;43.25;96001.34;5136266;27;20218;-63
2022/01/25 09:59:48;;;;;;;16.98;15.57;;;;;;;-0.77;43.00;95996.97;5135752;27;20622;-63
2022/01/25 10:02:36;;;;;;;17.48;15.98;;;;;;;-0.45;43.52;95988.81;5136327;27;20287;-63
2022/01/25 10:05:18;;;;;;;18.08;16.67;;;;;;;-0.37;43.05;95992.94;5135193;27;20422;-64
2022/01/25 10:07:44;;;;;;;17.92;16.52;;;;;;;-0.11;43.09;95989.31;5135921;28;20186;-64
2022/01/25 10:10:11;;;;;;;16.95;15.55;;;;;;;-0.15;41.88;95980.06;5118361;28;20525;-64
2022/01/25 10:12:38;;;;;;;17.23;15.85;;;;;;;-0.24;42.33;95981.63;5136495;28;20199;-64
2022/01/25 10:15:11;;;;;;;16.00;14.70;;;;;;;-0.34;41.75;95978.88;5135886;28;20621;-64
2022/01/25 10:17:41;;;;;;;16.85;15.55;;;;;;;-0.21;42.32;95983.84;5136138;28;20233;-64
2022/01/25 10:20:26;;;;;;;17.25;15.85;;;;;;;-0.16;42.28;95975.72;5136097;28;20329;-64
2022/01/25 10:22:53;;;;;;;16.60;15.30;;;;;;;0.13;41.58;95970.69;5135946;28;20191;-64
2022/01/25 10:25:30;;;;;;;17.83;16.23;;;;;;;0.40;41.14;95962.41;5136066;28;20203;-64
2022/01/25 10:28:01;;;;;;;18.20;16.80;;;;;;;0.48;41.76;95963.78;5134843;28;20435;-66
2022/01/25 10:30:31;;;;;;;17.40;16.00;;;;;;;0.41;40.46;95972.19;5135804;28;20283;-64
2022/01/25 10:33:01;;;;;;;16.77;15.40;;;;;;;0.60;41.68;95956.22;5135571;28;20183;-64
2022/01/25 10:35:31;;;;;;;17.50;16.00;;;;;;;0.73;41.21;95957.59;5117825;28;20190;-64
2022/01/25 10:37:58;;;;;;;17.48;15.98;;;;;;;0.91;40.72;95942.69;5117550;28;20202;-64
2022/01/25 10:40:38;;;;;;;18.33;16.85;;;;;;;1.15;41.48;95953.81;5135978;28;20191;-64
2022/01/25 10:43:08;;;;;;;18.52;16.92;;;;;;;1.53;41.37;95941.59;5135861;28;20195;-64
2022/01/25 10:45:35;;;;;;;18.00;16.45;;;;;;;1.74;40.23;95939.63;5136019;28;20203;-64
2022/01/25 10:48:01;;;;;;;17.10;15.73;;;;;;;1.50;40.39;95933.97;5117802;28;20195;-64
2022/01/25 10:50:34;;;;;;;17.58;16.17;;;;;;;1.58;38.88;95930.69;5136042;28;20192;-64
2022/01/25 10:53:09;;;;;;;17.17;15.77;;;;;;;1.78;39.33;95923.56;5117420;28;20195;-64
2022/01/25 10:55:37;;;;;;;17.45;16.10;;;;;;;2.00;37.87;95929.50;5117709;28;20206;-64
2022/01/25 10:58:04;;;;;;;17.38;15.98;;;;;;;1.65;39.46;95919.53;5118430;28;20291;-64
2022/01/25 11:00:33;;;;;;;17.08;15.68;;;;;;;1.76;38.38;95915.69;5135730;28;20191;-64
2022/01/25 11:03:01;;;;;;;17.08;15.68;;;;;;;1.59;38.98;95916.00;5135303;28;20581;-64
2022/01/25 11:05:33;;;;;;;17.52;16.05;;;;;;;1.26;39.73;95908.44;5117859;28;20501;-64
2022/01/25 11:08:11;;;;;;;16.95;15.55;;;;;;;1.56;40.10;95907.56;5135444;28;20226;-65
2022/01/25 11:10:38;;;;;;;17.48;16.08;;;;;;;2.11;39.87;95908.50;5117854;28;20202;-65
2022/01/25 11:13:21;;;;;;;18.05;16.55;;;;;;;2.22;38.54;95906.56;5138875;27;20218;-65
2022/01/25 11:15:49;;;;;;;18.08;16.58;;;;;;;2.23;39.20;95908.19;5138798;27;20665;-65
2022/01/25 11:18:16;;;;;;;16.60;15.30;;;;;;;2.41;37.81;95908.34;5139166;27;20191;-65
2022/01/25 11:20:44;;;;;;;17.98;16.38;;;;;;;2.17;36.84;95905.47;5121409;27;20187;-65
2022/01/25 11:23:12;;;;;;;16.83;15.48;;;;;;;1.63;37.76;95906.22;5121082;27;20202;-64
2022/01/25 11:25:41;;;;;;;16.35;14.95;;;;;;;1.33;39.99;95898.91;5139313;27;20191;-65
2022/01/25 11:28:08;;;;;;;16.98;15.57;;;;;;;1.98;39.50;95895.50;5139270;27;20210;-65
2022/01/25 11:30:36;;;;;;;16.85;15.50;;;;;;;2.56;37.78;95895.75;5120867;27;20210;-64
2022/01/25 11:33:04;;;;;;;17.10;15.80;;;;;;;2.78;37.52;95881.69;5138924;27;20240;-64
2022/01/25 11:35:31;;;;;;;16.13;14.80;;;;;;;3.07;35.74;95876.28;5138893;27;20196;-64
2022/01/25 11:37:59;;;;;;;16.35;15.05;;;;;;;3.04;36.82;95866.78;5121002;27;20199;-65
2022/01/25 11:40:29;;;;;;;16.08;14.77;;;;;;;3.29;36.46;95870.38;5139019;27;20209;-65
2022/01/25 11:42:58;;;;;;;16.40;15.00;;;;;;;3.55;36.08;95860.84;5120719;27;20215;-65
2022/01/25 11:45:26;;;;;;;17.23;15.73;;;;;;;3.55;35.88;95860.03;5138630;27;20193;-65
2022/01/25 11:47:54;;;;;;;16.95;15.45;;;;;;;3.72;35.60;95854.94;5138364;27;20524;-65
2022/01/25 11:50:26;;;;;;;16.35;14.85;;;;;;;3.89;35.65;95846.28;5120663;27;20214;-65
2022/01/25 11:52:56;;;;;;;16.92;15.48;;;;;;;4.04;35.20;95843.38;5120981;27;20198;-65
2022/01/25 11:55:27;;;;;;;18.05;16.42;;;;;;;4.04;34.75;95843.38;5120234;27;20502;-65
2022/01/25 11:57:56;;;;;;;17.17;15.68;;;;;;;4.11;35.07;95840.28;5120183;27;20195;-65
2022/01/25 12:00:24;;;;;;;17.55;16.05;;;;;;;4.10;34.86;95836.75;5120021;27;20206;-65
2022/01/25 12:02:53;;;;;;;16.52;15.05;;;;;;;4.24;34.40;95838.72;5120554;27;20222;-65
2022/01/25 12:05:25;;;;;;;17.25;15.80;;;;;;;4.21;34.85;95839.31;5138527;27;20629;-64
2022/01/25 12:08:06;;;;;;;16.77;15.48;;;;;;;4.02;34.22;95836.56;5138270;27;20195;-64
2022/01/25 12:10:38;;;;;;;17.20;15.80;;;;;;;3.87;34.71;95837.56;5119452;27;20431;-64
2022/01/25 12:13:13;;;;;;;16.27;14.88;;;;;;;4.02;34.10;95833.84;5138298;27;20195;-64
2022/01/25 12:15:40;;;;;;;16.83;15.35;;;;;;;4.22;34.09;95824.56;5137874;27;20209;-64
2022/01/25 12:18:09;;;;;;;16.70;15.27;;;;;;;4.18;33.94;95827.09;5119981;27;20202;-65
2022/01/25 12:20:48;;;;;;;17.80;16.30;;;;;;;4.21;33.86;95817.47;5137888;27;20214;-64
2022/01/25 12:23:19;;;;;;;17.45;15.98;;;;;;;4.20;34.42;95819.38;5119767;27;20218;-64
2022/01/25 12:25:52;;;;;;;17.20;15.70;;;;;;;4.40;34.38;95820.22;5119860;27;20246;-64
2022/01/25 12:28:27;;;;;;;17.75;16.15;;;;;;;4.69;33.97;95809.13;5119806;27;20191;-64
2022/01/25 12:30:54;;;;;;;15.90;14.60;;;;;;;4.47;34.10;95810.56;5119909;27;20198;-64
2022/01/25 12:33:23;;;;;;;17.70;16.15;;;;;;;4.70;32.40;95811.56;5137897;27;20214;-64
2022/01/25 12:35:51;;;;;;;17.35;15.85;;;;;;;4.23;33.59;95798.88;5137604;27;20207;-64
2022/01/25 12:38:20;;;;;;;17.15;15.65;;;;;;;4.90;33.32;95796.78;5119578;27;20205;-64
2022/01/25 12:41:00;;;;;;;15.68;14.38;;;;;;;5.24;33.26;95798.38;5137774;27;20191;-65
2022/01/25 12:43:33;;;;;;;16.15;14.85;;;;;;;5.73;31.18;95785.94;5137544;27;20268;-64
2022/01/25 12:46:03;;;;;;;15.98;14.57;;;;;;;5.65;31.25;95781.97;5119494;27;20255;-64
2022/01/25 12:48:33;;;;;;;15.80;14.50;;;;;;;5.43;31.78;95782.69;5119666;27;20203;-64
2022/01/25 12:51:08;;;;;;;15.63;14.23;;;;;;;4.93;32.62;95778.94;5119422;27;20195;-64
2022/01/25 12:53:40;;;;;;;16.40;14.90;;;;;;;3.85;33.75;95777.84;5119590;27;20199;-64
2022/01/25 12:56:11;;;;;;;16.38;14.98;;;;;;;3.03;35.13;95785.31;5137413;27;20206;-64
2022/01/25 12:58:38;;;;;;;17.05;15.60;;;;;;;2.40;36.37;95781.47;5119762;27;20183;-64
2022/01/25 13:01:07;;;;;;;16.70;15.30;;;;;;;2.00;37.51;95777.13;5137167;27;20203;-64
2022/01/25 13:03:35;;;;;;;17.13;15.68;;;;;;;1.50;37.79;95776.28;5137741;27;20202;-64
2022/01/25 13:06:08;;;;;;;15.25;13.95;;;;;;;1.15;38.77;95772.59;5137767;27;20579;-64
2022/01/25 13:08:39;;;;;;;15.82;14.55;;;;;;;0.84;39.69;95773.75;5119411;27;20194;-64
2022/01/25 13:11:42;;;;;;;16.65;15.18;;;;;;;0.52;40.11;95772.16;5137078;27;20210;-64
2022/01/25 13:16:58;;;;;;;17.00;15.60;;;;;;;0.43;41.99;95763.72;5136803;27;20226;-65
2022/01/25 13:19:27;;;;;;;15.48;14.07;;;;;;;0.37;41.32;95766.72;5138146;27;20251;-66
2022/01/25 13:21:57;;;;;;;16.30;14.95;;;;;;;0.13;41.03;95766.44;5118279;27;20219;-64
2022/01/25 13:24:28;;;;;;;15.63;14.27;;;;;;;-0.13;40.93;95763.69;5136771;27;20195;-64
2022/01/25 13:27:00;;;;;;;16.00;14.45;;;;;;;-0.25;42.02;95757.72;5136744;27;20203;-64
2022/01/25 13:32:22;;;;;;;16.10;14.70;;;;;;;-0.19;42.46;95763.94;5118620;27;20285;-64
2022/01/25 13:35:14;;;;;;;16.23;14.88;;;;;;;-0.37;42.38;95762.53;5117952;27;20209;-64
2022/01/25 13:37:41;;;;;;;15.63;14.32;;;;;;;-0.46;42.25;95767.66;5136214;27;20211;-66
2022/01/25 13:40:09;;;;;;;16.92;15.60;;;;;;;-0.67;42.32;95769.47;5135766;27;20427;-65
2022/01/25 13:42:43;;;;;;;16.20;14.90;;;;;;;-0.76;43.64;95765.66;5135655;27;20541;-64
2022/01/25 13:48:02;;;;;;;15.75;14.43;;;;;;;-0.68;44.07;95761.63;5136827;27;20179;-64
2022/01/25 13:50:30;;;;;;;15.57;14.27;;;;;;;-0.91;44.26;95758.25;5136484;27;20187;-64
2022/01/25 13:52:56;;;;;;;14.82;13.52;;;;;;;-1.04;43.90;95751.44;5118553;27;20205;-65
2022/01/25 13:55:25;;;;;;;15.02;13.82;;;;;;;-1.01;44.83;95745.50;5136536;27;20187;-64
2022/01/25 13:57:53;;;;;;;15.70;14.38;;;;;;;-0.93;43.79;95746.88;5136470;27;20199;-67
2022/01/25 14:00:21;;;;;;;15.50;14.20;;;;;;;-1.17;44.40;95754.59;5118960;28;20319;-67
2022/01/25 14:02:50;;;;;;;15.85;14.45;;;;;;;-1.21;44.55;95761.63;5118311;27;20222;-64
2022/01/25 14:05:19;;;;;;;16.10;14.70;;;;;;;-1.11;44.53;95753.56;5118677;28;20211;-64
2022/01/25 14:07:48;;;;;;;16.98;15.48;;;;;;;-1.17;44.06;95757.31;5136175;27;20199;-64
2022/01/25 14:10:22;;;;;;;15.63;14.32;;;;;;;-1.22;43.97;95757.28;5118012;28;20214;-64
2022/01/25 14:23:48;;;;;;;15.65;14.35;;;;;;;-1.25;44.26;95750.50;5135694;28;20514;-64
2022/01/25 14:26:16;;;;;;;16.58;15.07;;;;;;;-1.29;44.25;95748.59;5118034;28;20205;-64
2022/01/25 14:28:51;;;;;;;15.90;14.55;;;;;;;-1.28;44.40;95747.50;5118387;28;20623;-63
2022/01/25 14:31:20;;;;;;;15.88;14.57;;;;;;;-1.34;44.61;95754.78;5118367;28;20327;-64
2022/01/25 14:36:39;;;;;;;15.27;13.93;;;;;;;-1.47;44.20;95752.53;5118510;28;20191;-64
2022/01/25 14:39:06;;;;;;;15.52;14.23;;;;;;;-1.54;45.05;95750.03;5118464;28;20245;-64
2022/01/25 14:41:36;;;;;;;15.23;13.80;;;;;;;-1.56;44.43;95749.50;5136568;28;20191;-64
2022/01/25 14:44:06;;;;;;;14.93;13.68;;;;;;;-1.55;43.90;95748.44;5135637;28;20203;-64
2022/01/25 14:46:36;;;;;;;14.98;13.77;;;;;;;-1.56;44.51;95751.38;5138283;27;20210;-64
2022/01/25 14:49:07;;;;;;;16.02;14.57;;;;;;;-1.61;44.15;95756.75;5140145;27;20206;-64
2022/01/25 14:51:36;;;;;;;15.10;13.80;;;;;;;-1.61;44.23;95751.34;5139514;27;20299;-64
2022/01/25 14:54:04;;;;;;;15.75;14.45;;;;;;;-1.64;44.24;95749.16;5139909;27;20191;-63
2022/01/25 14:56:33;;;;;;;16.15;14.85;;;;;;;-1.73;44.16;95744.22;5139706;27;20195;-63
2022/01/25 15:01:51;;;;;;;15.45;14.05;;;;;;;-1.92;44.45;95742.16;5121115;27;20195;-64
2022/01/25 15:04:18;;;;;;;15.35;13.95;;;;;;;-1.95;44.72;95748.91;5139140;27;20195;-65
2022/01/25 15:06:45;;;;;;;16.00;14.80;;;;;;;-2.00;44.46;95757.81;5139166;27;20187;-65
2022/01/25 15:09:14;;;;;;;16.30;14.98;;;;;;;-2.07;44.81;95756.38;5139234;27;20191;-66
2022/01/25 15:11:41;;;;;;;17.27;15.88;;;;;;;-2.09;45.29;95758.53;5121202;27;20199;-66
2022/01/25 15:14:10;;;;;;;18.27;16.77;;;;;;;-2.16;44.84;95768.72;5139360;27;20196;-64
2022/01/25 15:16:37;;;;;;;18.42;16.92;;;;;;;-2.25;45.66;95760.25;5120650;27;20701;-66
2022/01/25 15:19:06;;;;;;;19.50;17.90;;;;;;;-2.36;45.40;95756.66;5120923;27;20199;-68
2022/01/25 15:21:33;;;;;;;19.45;17.77;;;;;;;-2.43;45.71;95759.56;5121388;27;20203;-65
2022/01/25 15:24:00;;;;;;;19.55;17.95;;;;;;;-2.43;45.45;95764.97;5138724;27;20653;-65
2022/01/25 15:26:28;;;;;;;21.13;19.33;;;;;;;-2.62;45.81;95769.03;5138684;27;20195;-66
2022/01/25 15:28:58;;;;;;;21.35;19.45;;;;;;;-2.67;46.22;95772.50;5139179;27;20209;-66
2022/01/25 15:31:25;;;;;;;19.95;18.25;;;;;;;-2.63;46.21;95772.81;5139059;27;20188;-66
2022/01/25 15:33:53;;;;;;;19.20;17.58;;;;;;;-2.64;46.34;95782.00;5138922;27;20188;-65
2022/01/25 15:36:22;;;;;;;22.02;20.17;;;;;;;-2.64;46.31;95782.00;5138856;27;20187;-65
2022/01/25 15:38:51;;;;;;;22.73;20.73;;;;;;;-2.70;46.69;95788.41;5120835;27;20639;-65
2022/01/25 15:41:22;;;;;;;20.60;18.83;;;;;;;-2.67;46.56;95787.91;5138847;27;20206;-65
2022/01/25 15:43:52;;;;;;;20.50;18.70;;;;;;;-2.72;46.13;95785.16;5138282;27;20219;-65
2022/01/25 15:46:25;;;;;;;23.20;21.13;;;;;;;-2.74;46.63;95792.66;5120538;27;20214;-65
2022/01/25 15:48:51;;;;;;;23.63;21.52;;;;;;;-2.77;46.84;95785.88;5120842;27;20230;-66
2022/01/25 15:51:18;;;;;;;23.05;21.05;;;;;;;-2.76;46.41;95781.28;5138576;27;20188;-65
2022/01/25 15:53:47;;;;;;;22.35;20.30;;;;;;;-2.76;46.83;95789.41;5138409;27;20197;-66
2022/01/25 15:56:15;;;;;;;20.42;18.63;;;;;;;-2.77;46.47;95783.19;5120631;27;20199;-66
2022/01/25 15:58:42;;;;;;;19.98;18.30;;;;;;;-2.76;46.61;95790.25;5119921;27;20203;-65
2022/01/25 16:01:10;;;;;;;19.60;17.90;;;;;;;-2.84;46.08;95789.84;5120513;27;20203;-66
2022/01/25 16:03:37;;;;;;;20.15;18.35;;;;;;;-2.88;46.76;95797.63;5138363;27;20215;-69
2022/01/25 16:06:04;;;;;;;19.80;18.20;;;;;;;-2.96;46.34;95796.19;5120272;27;20216;-65
2022/01/25 16:08:31;;;;;;;19.60;18.00;;;;;;;-2.98;46.63;95801.03;5120750;27;20206;-64
2022/01/25 16:10:59;;;;;;;20.25;18.55;;;;;;;-2.97;46.86;95799.94;5138270;27;20611;-64
2022/01/25 16:13:27;;;;;;;20.80;19.00;;;;;;;-3.01;46.59;95809.63;5120480;27;20202;-64
2022/01/25 16:15:54;;;;;;;19.58;17.98;;;;;;;-3.03;46.34;95797.44;5137942;27;20239;-64
2022/01/25 16:18:21;;;;;;;18.85;17.25;;;;;;;-3.07;46.40;95807.91;5120620;27;20207;-64
2022/01/25 16:20:48;;;;;;;20.48;18.77;;;;;;;-3.09;46.51;95811.91;5120518;27;20213;-64
2022/01/25 16:23:15;;;;;;;18.45;16.90;;;;;;;-3.15;46.32;95811.03;5120048;27;20256;-64
2022/01/25 16:25:42;;;;;;;19.92;18.35;;;;;;;-3.18;46.81;95812.34;5137957;27;20211;-64
2022/01/25 16:28:10;;;;;;;18.77;17.27;;;;;;;-3.26;46.65;95814.66;5119779;27;20214;-64
2022/01/25 16:30:37;;;;;;;20.60;18.88;;;;;;;-3.28;46.77;95814.06;5120329;27;20248;-64
2022/01/25 16:33:05;;;;;;;19.60;18.00;;;;;;;-3.28;46.66;95809.50;5119537;27;20297;-64
2022/01/25 16:35:32;;;;;;;19.35;17.77;;;;;;;-3.34;47.17;95801.56;5137757;27;20205;-64
2022/01/25 16:37:59;;;;;;;20.48;18.77;;;;;;;-3.39;47.12;95794.22;5137759;27;20194;-64
2022/01/25 16:40:26;;;;;;;19.75;18.05;;;;;;;-3.44;47.15;95804.94;5119973;27;20191;-64
2022/01/25 16:42:53;;;;;;;18.92;17.30;;;;;;;-3.42;47.32;95794.72;5137223;27;20208;-64
2022/01/25 16:45:22;;;;;;;19.58;17.90;;;;;;;-3.44;47.58;95800.38;5119751;27;20210;-64
2022/01/25 16:47:49;;;;;;;19.05;17.48;;;;;;;-3.38;47.00;95793.16;5137580;27;20206;-64
2022/01/25 16:50:21;;;;;;;19.25;17.65;;;;;;;-3.41;46.80;95793.66;5137510;27;20195;-64
2022/01/25 16:52:48;;;;;;;18.58;16.95;;;;;;;-3.45;46.82;95793.34;5119569;27;20286;-64
2022/01/25 16:55:15;;;;;;;21.90;20.00;;;;;;;-3.46;47.31;95791.69;5119074;27;20203;-64
2022/01/25 16:57:42;;;;;;;22.25;20.25;;;;;;;-3.56;47.21;95796.13;5137383;27;20252;-64
2022/01/25 17:00:12;;;;;;;20.70;18.90;;;;;;;-3.64;47.60;95790.06;5137377;27;20275;-64
2022/01/25 17:02:40;;;;;;;21.40;19.58;;;;;;;-3.73;47.65;95791.56;5136939;27;20211;-64
2022/01/25 17:05:08;;;;;;;22.95;20.95;;;;;;;-3.73;47.81;95796.13;5137323;27;20228;-64
2022/01/25 17:07:35;;;;;;;20.02;18.23;;;;;;;-3.70;47.68;95793.78;5119065;27;20198;-64
2022/01/25 17:10:02;;;;;;;19.52;17.83;;;;;;;-3.67;47.84;95798.69;5118101;27;20194;-64
2022/01/25 17:12:28;;;;;;;18.65;17.05;;;;;;;-3.66;47.65;95797.59;5136805;27;20299;-64
2022/01/25 17:14:55;;;;;;;17.63;16.13;;;;;;;-3.63;47.46;95793.59;5119431;27;20205;-64
2022/01/25 17:17:22;;;;;;;18.30;16.70;;;;;;;-3.64;47.39;95794.66;5136582;27;20219;-64
2022/01/25 17:19:50;;;;;;;18.20;16.63;;;;;;;-3.67;47.56;95787.88;5118782;27;20203;-64
2022/01/25 17:22:17;;;;;;;19.13;17.42;;;;;;;-3.72;47.66;95787.78;5137343;27;20218;-64
2022/01/25 17:24:44;;;;;;;18.70;17.10;;;;;;;-3.77;47.79;95793.13;5136606;27;20221;-64
2022/01/25 17:27:11;;;;;;;19.00;17.40;;;;;;;-3.79;48.12;95791.72;5136811;27;20187;-64
2022/01/25 17:29:37;;;;;;;19.15;17.52;;;;;;;-3.82;47.64;95794.91;5136796;27;20197;-64
2022/01/25 17:32:05;;;;;;;18.83;17.23;;;;;;;-3.86;47.66;95797.25;5118667;27;20199;-64
2022/01/25 17:34:32;;;;;;;18.33;16.77;;;;;;;-3.87;48.16;95795.63;5136427;27;20198;-64
2022/01/25 17:37:00;;;;;;;17.15;15.85;;;;;;;-3.84;47.89;95791.66;5136668;27;20187;-64
2022/01/25 17:39:27;;;;;;;18.20;16.70;;;;;;;-3.92;47.73;95791.00;5118511;27;20207;-64
2022/01/25 17:41:54;;;;;;;17.63;16.25;;;;;;;-3.96;48.40;95797.94;5118505;27;20199;-64
2022/01/25 17:44:20;;;;;;;18.45;16.95;;;;;;;-3.97;48.07;95801.66;5118497;27;20223;-64
2022/01/25 17:46:47;;;;;;;19.00;17.45;;;;;;;-4.02;48.05;95800.78;5136142;27;20202;-64
2022/01/25 17:49:14;;;;;;;20.25;18.65;;;;;;;-4.04;48.68;95813.66;5136424;27;20205;-64
2022/01/25 17:51:43;;;;;;;18.98;17.48;;;;;;;-4.09;48.50;95813.59;5136589;27;20199;-64
2022/01/25 17:54:11;;;;;;;18.33;16.83;;;;;;;-4.11;48.75;95811.94;5136249;27;20198;-64
2022/01/25 17:56:38;;;;;;;18.67;17.08;;;;;;;-4.11;48.88;95813.81;5136291;27;20205;-64
2022/01/25 17:59:07;;;;;;;18.15;16.65;;;;;;;-4.16;49.23;95808.34;5136505;27;20195;-64
2022/01/25 18:01:34;;;;;;;18.50;16.90;;;;;;;-4.12;49.06;95806.78;5118045;28;20251;-64
2022/01/25 18:04:01;;;;;;;18.58;16.95;;;;;;;-4.12;49.11;95804.09;5136109;27;20218;-64
2022/01/25 18:06:28;;;;;;;18.00;16.50;;;;;;;-4.07;48.70;95804.19;5136635;27;20217;-64
2022/01/25 18:08:55;;;;;;;18.20;16.70;;;;;;;-4.15;48.95;95805.41;5118567;27;20199;-63
2022/01/25 18:11:23;;;;;;;17.35;15.85;;;;;;;-4.09;48.79;95810.88;5135921;28;20202;-63
2022/01/25 18:13:50;;;;;;;17.45;15.93;;;;;;;-4.06;48.52;95811.22;5117999;28;20191;-63
2022/01/25 18:16:17;;;;;;;18.25;16.75;;;;;;;-4.04;48.67;95808.28;5135817;28;20525;-63
2022/01/25 18:18:45;;;;;;;17.42;15.93;;;;;;;-4.06;48.02;95805.84;5118383;28;20210;-63
2022/01/25 18:21:12;;;;;;;17.08;15.70;;;;;;;-4.05;48.02;95807.47;5120245;27;20461;-65
2022/01/25 18:23:46;;;;;;;17.52;16.13;;;;;;;-4.07;48.11;95808.75;5140320;27;20207;-65
2022/01/25 18:26:19;;;;;;;16.85;15.32;;;;;;;-4.04;47.80;95809.09;5122465;27;20522;-65
2022/01/25 18:28:47;;;;;;;16.75;15.35;;;;;;;-4.05;48.02;95812.03;5122293;27;20207;-65
2022/01/25 18:31:14;;;;;;;16.48;15.07;;;;;;;-4.05;47.75;95810.16;5122321;27;20217;-65
2022/01/25 18:33:41;;;;;;;17.58;16.08;;;;;;;-4.06;47.61;95808.53;5122051;27;20208;-65
2022/01/25 18:36:08;;;;;;;16.45;15.15;;;;;;;-4.08;47.68;95810.63;5121951;27;20638;-65
2022/01/25 18:38:35;;;;;;;15.95;14.63;;;;;;;-4.13;47.85;95818.63;5139652;27;20642;-65
2022/01/25 18:41:02;;;;;;;17.83;16.33;;;;;;;-4.16;47.92;95811.03;5139356;27;20438;-64
2022/01/25 18:43:30;;;;;;;15.07;13.67;;;;;;;-4.12;47.62;95813.00;5139429;27;20941;-66
2022/01/25 18:46:05;;;;;;;15.00;13.50;;;;;;;-4.18;47.63;95807.75;5121707;27;20190;-66
2022/01/25 18:48:34;;;;;;;15.48;13.88;;;;;;;-4.16;47.32;95805.66;5121803;27;20194;-66
2022/01/25 18:51:03;;;;;;;18.30;16.70;;;;;;;-4.13;47.66;95816.75;5139824;27;20187;-65
2022/01/25 18:53:30;;;;;;;17.70;16.20;;;;;;;-4.16;47.02;95806.47;5121674;27;20199;-64
2022/01/25 18:55:57;;;;;;;16.40;15.00;;;;;;;-4.23;47.03;95813.06;5139643;27;20191;-64
2022/01/25 18:58:24;;;;;;;17.55;16.05;;;;;;;-4.25;47.15;95818.72;5139308;27;20530;-64
2022/01/25 19:00:51;;;;;;;17.08;15.68;;;;;;;-4.21;47.74;95819.84;5121562;27;20213;-64
2022/01/25 19:03:20;;;;;;;15.85;14.50;;;;;;;-4.19;47.51;95825.00;5139489;27;20291;-64
2022/01/25 19:05:47;;;;;;;15.98;14.68;;;;;;;-4.21;47.14;95824.41;5121322;27;20211;-66